Time;durP1;ratioP1;P1;durP2;ratioP2;P2;SDS_P1;SDS_P2;PMS_P1;PMS_P2;Temp;Humidity;BMP_temperature;BMP_pressure;BME280_temperature;BME280_humidity;BME280_pressure;Samples;Min_cycle;Max_cycle;Signal;HPM_P1;HPM_P2
2023/01/21 00:02:17;;;;;;;31.08;22.08;;;0.90;99.90;;;;;;5074751;28;20044;-68
2023/01/21 00:04:43;;;;;;;32.13;20.40;;;1.00;99.90;;;;;;5074976;28;20033;-67
2023/01/21 00:07:08;;;;;;;33.65;21.95;;;1.10;99.90;;;;;;5057655;28;20449;-68
2023/01/21 00:09:34;;;;;;;30.25;21.10;;;1.10;99.90;;;;;;5074648;28;20049;-67
2023/01/21 00:12:01;;;;;;;43.45;23.85;;;1.10;99.90;;;;;;5056801;28;20135;-68
2023/01/21 00:14:30;;;;;;;33.65;23.25;;;1.30;99.90;;;;;;5074567;28;20044;-68
2023/01/21 00:16:57;;;;;;;35.58;22.63;;;1.60;99.90;;;;;;5056645;28;20051;-68
2023/01/21 00:19:23;;;;;;;41.05;23.58;;;0.80;99.90;;;;;;5075402;28;20041;-68
2023/01/21 00:21:49;;;;;;;39.50;25.20;;;1.20;99.90;;;;;;5075128;28;20161;-68
2023/01/21 00:24:15;;;;;;;32.90;22.40;;;0.80;99.90;;;;;;5059354;28;20074;-67
2023/01/21 00:26:41;;;;;;;36.50;23.15;;;0.80;99.90;;;;;;5077046;28;20104;-67
2023/01/21 00:29:07;;;;;;;35.97;24.48;;;0.80;99.90;;;;;;5077623;28;20038;-67
2023/01/21 00:31:32;;;;;;;38.22;24.17;;;1.50;99.90;;;;;;5078000;28;20043;-67
2023/01/21 00:33:58;;;;;;;41.28;24.10;;;0.70;99.90;;;;;;5075240;28;20051;-68
2023/01/21 00:36:28;;;;;;;33.10;23.38;;;0.80;99.90;;;;;;5075363;28;20052;-68
2023/01/21 00:38:55;;;;;;;34.63;22.92;;;0.70;99.90;;;;;;5074163;28;20040;-68
2023/01/21 00:41:20;;;;;;;32.67;19.73;;;0.70;99.90;;;;;;5074016;28;20044;-68
2023/01/21 00:43:46;;;;;;;35.17;23.77;;;2.20;99.90;;;;;;5074030;28;20102;-67
2023/01/21 00:46:12;;;;;;;32.72;20.83;;;0.70;99.90;;;;;;5056216;28;20048;-68
2023/01/21 00:48:39;;;;;;;30.98;18.88;;;0.70;99.90;;;;;;5073860;28;20063;-67
2023/01/21 00:51:05;;;;;;;32.38;20.67;;;1.10;99.90;;;;;;5073969;28;20051;-67
2023/01/21 00:53:33;;;;;;;34.72;22.10;;;0.80;99.90;;;;;;5055947;28;20059;-67
2023/01/21 00:56:01;;;;;;;32.08;20.77;;;0.80;99.90;;;;;;5073929;28;20056;-68
2023/01/21 00:58:27;;;;;;;34.42;22.05;;;1.60;99.90;;;;;;5073879;28;20123;-68
2023/01/21 01:01:05;;;;;;;30.25;19.98;;;0.80;99.90;;;;;;5073744;28;20036;-67
2023/01/21 01:03:31;;;;;;;35.63;21.02;;;0.80;99.90;;;;;;5073875;28;20043;-67
2023/01/21 01:06:15;;;;;;;29.73;20.55;;;0.90;99.90;;;;;;5055891;28;20079;-67
2023/01/21 01:08:41;;;;;;;29.25;19.58;;;0.90;99.90;;;;;;5073816;28;20051;-67
2023/01/21 01:11:08;;;;;;;27.02;18.02;;;0.90;99.90;;;;;;5074275;28;20048;-67
2023/01/21 01:13:34;;;;;;;33.92;22.38;;;1.30;99.90;;;;;;5074255;28;20083;-67
2023/01/21 01:16:01;;;;;;;31.13;21.45;;;1.40;99.90;;;;;;5073721;28;20127;-67
2023/01/21 01:18:29;;;;;;;30.65;21.00;;;1.40;99.90;;;;;;5056219;28;20055;-67
2023/01/21 01:20:55;;;;;;;27.98;19.27;;;0.80;99.90;;;;;;5073620;28;20037;-67
2023/01/21 01:23:21;;;;;;;26.05;17.85;;;1.10;99.90;;;;;;5073643;28;20052;-67
2023/01/21 01:26:04;;;;;;;32.95;18.13;;;0.90;99.90;;;;;;5055666;28;20093;-67
2023/01/21 01:28:31;;;;;;;31.52;19.85;;;0.80;99.90;;;;;;5074164;28;20044;-67
2023/01/21 01:30:57;;;;;;;29.90;19.98;;;0.80;99.90;;;;;;5073544;28;20075;-67
2023/01/21 01:33:24;;;;;;;32.15;19.40;;;0.90;99.90;;;;;;5038988;28;20372;-67
2023/01/21 01:35:50;;;;;;;32.97;20.52;;;1.40;99.90;;;;;;5074093;28;20106;-67
2023/01/21 01:38:19;;;;;;;32.50;19.88;;;0.90;99.90;;;;;;5056069;28;20036;-67
2023/01/21 01:40:45;;;;;;;31.67;20.40;;;1.70;99.90;;;;;;5039010;28;20461;-67
2023/01/21 01:43:16;;;;;;;29.88;18.33;;;0.80;99.90;;;;;;5055726;28;20040;-67
2023/01/21 01:45:42;;;;;;;26.83;17.27;;;1.60;99.90;;;;;;5074240;28;20361;-67
2023/01/21 01:48:13;;;;;;;25.50;16.92;;;0.90;99.90;;;;;;5055706;28;20128;-67
2023/01/21 01:50:39;;;;;;;25.02;17.50;;;1.30;99.90;;;;;;5073072;28;20531;-67
2023/01/21 01:53:06;;;;;;;34.05;21.73;;;1.70;99.90;;;;;;5073303;28;20049;-67
2023/01/21 01:55:35;;;;;;;24.83;18.05;;;0.90;99.90;;;;;;5073294;28;20079;-67
2023/01/21 01:58:04;;;;;;;26.48;17.80;;;2.40;99.90;;;;;;5073211;28;20047;-67
2023/01/21 02:00:30;;;;;;;27.80;18.70;;;1.20;99.90;;;;;;5073125;28;20454;-68
2023/01/21 02:05:42;;;;;;;32.22;19.05;;;0.90;99.90;;;;;;5074846;28;20091;-67
2023/01/21 02:08:09;;;;;;;27.50;17.88;;;1.10;99.90;;;;;;5077035;28;20097;-67
2023/01/21 02:10:35;;;;;;;25.30;18.15;;;1.60;99.90;;;;;;5076921;28;20055;-67
2023/01/21 02:13:02;;;;;;;30.92;17.70;;;0.80;99.90;;;;;;5077412;28;20041;-68
2023/01/21 02:15:45;;;;;;;31.20;21.02;;;0.70;99.90;;;;;;5076895;28;20041;-67
2023/01/21 02:18:45;;;;;;;30.70;18.10;;;0.60;99.90;;;;;;5077138;28;20040;-68
2023/01/21 02:21:31;;;;;;;24.75;18.50;;;1.00;99.90;;;;;;4991233;28;20076;-67
2023/01/21 02:24:15;;;;;;;25.60;18.40;;;0.60;99.90;;;;;;5077446;28;20067;-67
2023/01/21 02:26:47;;;;;;;30.90;20.15;;;0.60;99.90;;;;;;5076646;28;20048;-67
2023/01/21 02:29:18;;;;;;;33.42;20.00;;;1.00;99.90;;;;;;5076615;28;20044;-67
2023/01/21 02:31:55;;;;;;;28.38;17.83;;;0.70;99.90;;;;;;5058924;28;20094;-68
2023/01/21 02:34:52;;;;;;;26.20;18.38;;;0.60;99.90;;;;;;5076579;28;20051;-67
2023/01/21 02:37:36;;;;;;;29.00;18.05;;;0.60;99.90;;;;;;5076739;28;20076;-67
2023/01/21 02:40:13;;;;;;;;;;;0.60;99.90;;;;;;5077616;28;20051;-68
2023/01/21 02:43:17;;;;;;;28.88;19.65;;;0.60;99.90;;;;;;5058817;28;20003;-67
2023/01/21 02:45:48;;;;;;;26.08;19.30;;;0.60;99.90;;;;;;5058806;28;20036;-67
2023/01/21 02:48:46;;;;;;;31.02;19.02;;;0.60;99.90;;;;;;5075771;28;20086;-67
2023/01/21 02:51:12;;;;;;;27.08;17.80;;;0.70;99.90;;;;;;5076281;28;20044;-67
2023/01/21 02:53:38;;;;;;;31.52;20.30;;;0.70;99.90;;;;;;5075852;28;20040;-68
2023/01/21 02:56:11;;;;;;;27.23;17.40;;;0.70;99.90;;;;;;5059291;28;20036;-67
2023/01/21 02:58:41;;;;;;;25.45;18.15;;;0.70;99.90;;;;;;5076219;28;20105;-67
2023/01/21 03:01:39;;;;;;;31.20;19.83;;;0.80;99.90;;;;;;5058502;28;20119;-67
2023/01/21 03:04:13;;;;;;;48.97;26.55;;;0.70;99.90;;;;;;5058156;28;20133;-67
2023/01/21 03:06:56;;;;;;;95.43;30.70;;;1.30;99.90;;;;;;5076211;28;20036;-67
2023/01/21 03:09:29;;;;;;;83.38;29.95;;;0.60;99.90;;;;;;5075985;28;20044;-67
2023/01/21 03:12:04;;;;;;;;;;;0.50;99.90;;;;;;5076542;28;20500;-68
2023/01/21 03:17:53;;;;;;;181.48;38.72;;;0.60;99.90;;;;;;5075481;28;20131;-68
2023/01/21 03:20:24;;;;;;;49.83;26.70;;;1.70;99.90;;;;;;5057803;28;20127;-68
2023/01/21 03:22:56;;;;;;;45.38;23.65;;;0.70;99.90;;;;;;5076006;28;20051;-67
2023/01/21 03:25:24;;;;;;;54.67;28.75;;;1.00;99.90;;;;;;5075612;28;20040;-68
2023/01/21 03:27:51;;;;;;;60.67;26.85;;;2.10;99.90;;;;;;5075820;28;20052;-67
2023/01/21 03:30:21;;;;;;;44.22;24.63;;;1.10;99.90;;;;;;5075399;28;20465;-68
2023/01/21 03:32:50;;;;;;;52.58;24.92;;;0.90;99.90;;;;;;5075595;28;20037;-68
2023/01/21 03:35:22;;;;;;;45.88;24.60;;;0.90;99.90;;;;;;5057982;28;20048;-68
2023/01/21 03:37:57;;;;;;;66.45;26.77;;;1.00;99.90;;;;;;5078350;28;20097;-67
2023/01/21 03:40:39;;;;;;;38.75;22.10;;;1.00;99.90;;;;;;5079027;28;20040;-68
2023/01/21 03:43:05;;;;;;;49.67;25.23;;;2.20;99.90;;;;;;5061730;28;20128;-67
2023/01/21 03:45:37;;;;;;;36.80;22.95;;;1.40;99.90;;;;;;5079698;28;20079;-67
2023/01/21 03:48:12;;;;;;;40.78;21.42;;;2.10;99.90;;;;;;5076629;28;20045;-68
2023/01/21 03:50:44;;;;;;;68.30;25.40;;;1.00;99.90;;;;;;5053684;28;20067;-68
2023/01/21 03:53:10;;;;;;;39.63;22.02;;;1.00;99.90;;;;;;5056025;28;20090;-68
2023/01/21 03:55:36;;;;;;;36.47;21.58;;;0.90;99.90;;;;;;5055497;28;20517;-67
2023/01/21 03:58:01;;;;;;;40.83;23.27;;;0.90;99.90;;;;;;5054974;28;20124;-67
2023/01/21 04:00:27;;;;;;;37.33;21.20;;;1.00;99.90;;;;;;5054812;28;20462;-68
2023/01/21 04:02:53;;;;;;;36.50;21.23;;;1.00;99.90;;;;;;5055216;28;20037;-67
2023/01/21 04:05:19;;;;;;;34.30;19.35;;;1.00;99.90;;;;;;5054819;28;20045;-68
2023/01/21 04:07:44;;;;;;;36.15;21.52;;;1.00;99.90;;;;;;5054513;28;20102;-68
2023/01/21 04:10:10;;;;;;;36.20;20.92;;;1.00;99.90;;;;;;5053545;28;20120;-68
2023/01/21 04:12:36;;;;;;;32.58;19.83;;;0.90;99.90;;;;;;5054730;28;20128;-68
2023/01/21 04:15:02;;;;;;;26.38;18.23;;;1.30;99.90;;;;;;5054608;28;20037;-67
2023/01/21 04:17:27;;;;;;;31.65;18.58;;;1.00;99.90;;;;;;5054647;28;20070;-68
2023/01/21 04:19:53;;;;;;;25.10;16.65;;;1.00;99.90;;;;;;5053340;28;20041;-68
2023/01/21 04:22:19;;;;;;;26.40;16.05;;;1.10;99.90;;;;;;5055352;28;20371;-67
2023/01/21 04:24:45;;;;;;;26.27;15.07;;;1.30;99.90;;;;;;5054435;28;20079;-68
2023/01/21 04:27:11;;;;;;;29.73;17.65;;;1.20;99.90;;;;;;5054427;28;20049;-67
2023/01/21 04:29:37;;;;;;;24.27;16.52;;;1.20;99.90;;;;;;5054315;28;20102;-68
2023/01/21 04:32:03;;;;;;;26.50;18.92;;;2.30;99.90;;;;;;5054344;28;20037;-68
2023/01/21 04:34:28;;;;;;;30.40;19.77;;;1.30;99.90;;;;;;5053281;28;20049;-67
2023/01/21 04:36:54;;;;;;;24.42;15.95;;;1.40;99.90;;;;;;5054179;28;20048;-67
2023/01/21 04:39:20;;;;;;;31.58;20.88;;;1.20;99.90;;;;;;5054258;28;20604;-68
2023/01/21 04:41:45;;;;;;;33.03;15.88;;;1.20;99.90;;;;;;5054645;28;20386;-68
2023/01/21 04:44:11;;;;;;;29.88;17.83;;;1.30;99.90;;;;;;5054129;28;20094;-68
2023/01/21 04:46:37;;;;;;;36.15;18.70;;;1.30;99.90;;;;;;5052943;28;20048;-68
2023/01/21 04:49:02;;;;;;;32.70;21.13;;;1.30;99.90;;;;;;5059516;28;20127;-67
2023/01/21 04:51:28;;;;;;;31.05;21.00;;;1.60;99.90;;;;;;5074590;28;20491;-67
2023/01/21 04:53:54;;;;;;;29.98;19.65;;;1.60;99.90;;;;;;5073986;28;20063;-67
2023/01/21 04:56:20;;;;;;;28.17;17.23;;;1.00;99.90;;;;;;5073959;28;20079;-68
2023/01/21 04:58:45;;;;;;;35.88;23.35;;;1.30;99.90;;;;;;5056629;28;20495;-68
2023/01/21 05:01:11;;;;;;;34.17;20.95;;;1.00;99.90;;;;;;5056001;28;20036;-68
2023/01/21 05:03:36;;;;;;;30.85;19.33;;;0.90;99.90;;;;;;5073856;28;20044;-68
2023/01/21 05:06:02;;;;;;;25.92;18.02;;;1.00;99.90;;;;;;5073753;28;20054;-68
2023/01/21 05:08:29;;;;;;;34.83;20.65;;;1.00;99.90;;;;;;5074315;28;20128;-68
2023/01/21 05:10:54;;;;;;;34.45;20.30;;;1.40;99.90;;;;;;5074047;28;20047;-67
2023/01/21 05:13:20;;;;;;;29.15;18.48;;;1.20;99.90;;;;;;5073680;28;20048;-68
2023/01/21 05:15:46;;;;;;;31.52;19.33;;;1.80;99.90;;;;;;5056085;28;20072;-68
2023/01/21 05:18:11;;;;;;;29.33;17.58;;;1.80;99.90;;;;;;5073683;28;20044;-68
2023/01/21 05:20:37;;;;;;;27.55;18.42;;;1.40;99.90;;;;;;5073602;28;20462;-67
2023/01/21 05:23:03;;;;;;;32.88;19.38;;;1.40;99.90;;;;;;5056225;28;20044;-67
2023/01/21 05:25:28;;;;;;;24.75;14.35;;;1.50;99.90;;;;;;5055866;28;20041;-68
2023/01/21 05:27:54;;;;;;;30.35;18.77;;;1.50;99.90;;;;;;5073529;28;20040;-68
2023/01/21 05:30:20;;;;;;;29.15;18.48;;;1.60;99.90;;;;;;5055645;28;20049;-67
2023/01/21 05:32:53;;;;;;;31.95;18.85;;;1.90;99.90;;;;;;5073209;28;20052;-68
2023/01/21 05:35:21;;;;;;;24.17;17.42;;;1.70;99.90;;;;;;5073595;28;20083;-68
2023/01/21 05:37:46;;;;;;;29.75;17.90;;;1.70;99.90;;;;;;5038954;28;20477;-68
2023/01/21 05:40:14;;;;;;;32.58;18.15;;;2.20;99.90;;;;;;5075418;28;20041;-67
2023/01/21 05:42:40;;;;;;;28.35;17.88;;;1.60;99.90;;;;;;5078114;28;20048;-68
2023/01/21 05:45:06;;;;;;;32.45;21.00;;;1.70;99.90;;;;;;5077555;28;20095;-68
2023/01/21 05:47:31;;;;;;;31.98;20.25;;;1.70;99.90;;;;;;5077463;28;20052;-68
2023/01/21 05:49:57;;;;;;;27.75;17.10;;;1.70;99.90;;;;;;5077866;28;20057;-67
2023/01/21 05:52:23;;;;;;;31.20;18.95;;;1.80;99.90;;;;;;5077842;28;20052;-68
2023/01/21 05:54:49;;;;;;;29.85;17.92;;;1.80;99.90;;;;;;5077876;28;20043;-68
2023/01/21 05:57:14;;;;;;;31.38;19.13;;;1.80;99.90;;;;;;5077212;28;20055;-67
2023/01/21 05:59:40;;;;;;;23.67;15.48;;;1.90;99.90;;;;;;5077237;28;20040;-68
2023/01/21 06:02:05;;;;;;;27.35;17.30;;;1.80;99.90;;;;;;5059278;28;20396;-68
2023/01/21 06:04:31;;;;;;;27.85;17.52;;;1.90;99.90;;;;;;5077165;28;20044;-67
2023/01/21 06:06:57;;;;;;;30.60;18.25;;;2.30;99.90;;;;;;5077064;28;20123;-68
2023/01/21 06:09:22;;;;;;;28.80;17.30;;;2.10;99.90;;;;;;5077561;28;20045;-67
2023/01/21 06:11:48;;;;;;;27.38;16.40;;;1.90;99.90;;;;;;5060125;28;20090;-67
2023/01/21 06:14:14;;;;;;;30.50;18.50;;;2.10;99.90;;;;;;5042698;28;20469;-68
2023/01/21 06:16:39;;;;;;;26.50;16.75;;;1.80;99.90;;;;;;5076866;28;20044;-68
2023/01/21 06:19:05;;;;;;;26.15;15.43;;;1.80;99.90;;;;;;5077134;28;20044;-68
2023/01/21 06:21:31;;;;;;;27.90;17.17;;;1.80;99.90;;;;;;5076726;28;20036;-68
2023/01/21 06:23:56;;;;;;;29.10;17.70;;;2.00;99.90;;;;;;5077602;28;20052;-69
2023/01/21 06:26:22;;;;;;;28.52;16.50;;;2.00;99.90;;;;;;5077396;28;20123;-68
2023/01/21 06:28:48;;;;;;;30.67;17.92;;;2.90;99.90;;;;;;5076692;28;20047;-68
2023/01/21 06:31:14;;;;;;;29.38;16.17;;;1.90;99.90;;;;;;5076993;28;20408;-68
2023/01/21 06:33:39;;;;;;;36.58;18.85;;;1.80;99.90;;;;;;5076654;28;20123;-68
2023/01/21 06:36:05;;;;;;;29.40;16.80;;;1.80;99.90;;;;;;5077424;28;20041;-68
2023/01/21 06:38:34;;;;;;;29.17;18.13;;;1.80;99.90;;;;;;5042789;28;20094;-68
2023/01/21 06:41:01;;;;;;;30.50;19.05;;;1.60;99.90;;;;;;5076800;28;20037;-69
2023/01/21 06:43:27;;;;;;;26.23;18.40;;;2.00;99.90;;;;;;5077119;28;20040;-68
2023/01/21 06:45:53;;;;;;;31.80;20.55;;;1.60;99.90;;;;;;5076677;28;20041;-69
2023/01/21 06:48:19;;;;;;;36.97;21.30;;;1.40;99.90;;;;;;5077203;28;20086;-68
2023/01/21 06:50:45;;;;;;;28.30;20.02;;;1.40;99.90;;;;;;5077616;28;20054;-68
2023/01/21 06:53:11;;;;;;;31.55;20.10;;;2.00;99.90;;;;;;5076280;28;20049;-69
2023/01/21 06:55:36;;;;;;;27.67;17.45;;;1.40;99.90;;;;;;5076063;28;20040;-68
2023/01/21 06:58:02;;;;;;;28.38;15.38;;;2.10;99.90;;;;;;5076217;28;20090;-68
2023/01/21 07:00:28;;;;;;;28.75;18.27;;;2.00;99.90;;;;;;5076888;28;20076;-68
2023/01/21 07:02:58;;;;;;;28.20;18.23;;;1.50;99.90;;;;;;5076789;28;20040;-68
2023/01/21 07:05:25;;;;;;;25.27;16.27;;;1.50;99.90;;;;;;5075868;28;20047;-68
2023/01/21 07:07:54;;;;;;;30.42;20.50;;;1.50;99.90;;;;;;5074910;28;20080;-68
2023/01/21 07:10:21;;;;;;;30.75;20.10;;;2.00;99.90;;;;;;5075322;28;20130;-68
2023/01/21 07:12:47;;;;;;;32.38;21.25;;;1.50;99.90;;;;;;5057405;28;20044;-68
2023/01/21 07:15:12;;;;;;;37.97;20.65;;;1.50;99.90;;;;;;5057315;28;20052;-68
2023/01/21 07:17:38;;;;;;;34.20;19.70;;;1.50;99.90;;;;;;5074640;28;20041;-68
2023/01/21 07:20:05;;;;;;;33.67;20.50;;;1.70;99.90;;;;;;5073972;28;20062;-69
2023/01/21 07:22:33;;;;;;;30.83;18.35;;;1.50;99.90;;;;;;5056779;28;20056;-68
2023/01/21 07:24:58;;;;;;;27.98;18.60;;;1.50;99.90;;;;;;5057118;28;20040;-69
2023/01/21 07:27:24;;;;;;;31.98;20.17;;;1.50;99.90;;;;;;5074344;28;20097;-68
2023/01/21 07:29:50;;;;;;;31.55;19.25;;;1.40;99.90;;;;;;5074411;28;20090;-68
2023/01/21 07:32:15;;;;;;;27.45;18.83;;;1.40;99.90;;;;;;5056546;28;20058;-68
2023/01/21 07:34:41;;;;;;;30.63;19.48;;;1.70;99.90;;;;;;5074606;28;20051;-68
2023/01/21 07:37:07;;;;;;;26.55;19.25;;;1.40;99.90;;;;;;5074492;28;20542;-68
2023/01/21 07:39:32;;;;;;;28.98;18.63;;;1.30;99.90;;;;;;5057366;28;20474;-68
2023/01/21 07:41:58;;;;;;;35.42;21.30;;;1.50;99.90;;;;;;5057572;28;20125;-68
2023/01/21 07:44:24;;;;;;;31.13;19.65;;;1.10;99.90;;;;;;5075502;28;20040;-68
2023/01/21 07:46:50;;;;;;;32.42;19.63;;;1.50;99.90;;;;;;5074997;28;20477;-68
2023/01/21 07:49:17;;;;;;;33.90;20.90;;;1.70;99.90;;;;;;5074553;28;20049;-68
2023/01/21 07:51:47;;;;;;;30.20;20.95;;;1.40;99.90;;;;;;5075305;28;20044;-68
2023/01/21 07:54:13;;;;;;;40.08;22.10;;;1.00;99.90;;;;;;5074811;28;20119;-68
2023/01/21 07:56:39;;;;;;;35.20;21.15;;;1.00;99.90;;;;;;5074805;28;20127;-69
2023/01/21 07:59:05;;;;;;;31.35;20.70;;;1.50;99.90;;;;;;5074704;28;20040;-69
2023/01/21 08:01:31;;;;;;;36.85;21.35;;;0.90;99.90;;;;;;5039733;28;20095;-69
2023/01/21 08:04:00;;;;;;;32.55;21.08;;;0.90;99.90;;;;;;5055811;28;20045;-70
2023/01/21 08:06:26;;;;;;;33.80;21.05;;;1.10;99.90;;;;;;5057099;28;20461;-69
2023/01/21 08:08:51;;;;;;;34.58;20.67;;;1.20;99.90;;;;;;5074500;28;20047;-69
2023/01/21 08:11:17;;;;;;;32.03;20.77;;;0.90;99.90;;;;;;5074487;28;20048;-68
2023/01/21 08:13:43;;;;;;;30.58;18.52;;;1.70;99.90;;;;;;5074278;28;20517;-69
2023/01/21 08:16:10;;;;;;;39.88;24.02;;;1.10;99.90;;;;;;5073781;28;20049;-70
2023/01/21 08:18:36;;;;;;;33.28;20.48;;;1.60;99.90;;;;;;5056061;28;20043;-69
2023/01/21 08:21:02;;;;;;;41.58;25.45;;;1.20;99.90;;;;;;5073217;28;20033;-68
2023/01/21 08:23:28;;;;;;;38.05;22.90;;;1.30;99.90;;;;;;5073495;28;20043;-68
2023/01/21 08:25:54;;;;;;;32.22;20.58;;;1.30;99.90;;;;;;5074231;28;20067;-68
2023/01/21 08:28:21;;;;;;;34.63;20.10;;;1.30;99.90;;;;;;5073770;28;20067;-68
2023/01/21 08:30:47;;;;;;;33.17;21.27;;;1.30;99.90;;;;;;5073760;28;20033;-68
2023/01/21 08:33:14;;;;;;;29.70;19.40;;;1.90;99.90;;;;;;5072980;28;20127;-68
2023/01/21 08:35:40;;;;;;;34.72;21.13;;;1.30;99.90;;;;;;5073567;28;20044;-68
2023/01/21 08:38:05;;;;;;;35.25;22.23;;;1.30;99.90;;;;;;5073742;28;20058;-68
2023/01/21 08:40:31;;;;;;;30.15;20.38;;;1.30;99.90;;;;;;5073305;28;20122;-68
2023/01/21 08:43:01;;;;;;;32.95;19.73;;;1.30;99.90;;;;;;5073295;28;20163;-68
2023/01/21 08:45:27;;;;;;;38.85;22.95;;;2.30;99.90;;;;;;5073992;28;20071;-67
2023/01/21 08:47:54;;;;;;;40.63;24.38;;;1.30;99.90;;;;;;5073306;28;20052;-67
2023/01/21 08:50:20;;;;;;;31.10;20.70;;;1.50;99.90;;;;;;5072859;28;20044;-68
2023/01/21 08:52:53;;;;;;;33.63;21.67;;;1.70;99.90;;;;;;5055660;28;20044;-67
2023/01/21 08:55:23;;;;;;;28.70;19.45;;;1.30;99.90;;;;;;5073487;28;20366;-67
2023/01/21 08:57:50;;;;;;;38.42;22.63;;;1.40;99.90;;;;;;5055691;28;20045;-67
2023/01/21 09:00:18;;;;;;;38.85;23.38;;;2.10;99.90;;;;;;5054778;28;20046;-67
2023/01/21 09:02:43;;;;;;;33.58;20.92;;;1.50;99.90;;;;;;5072755;28;20105;-67
2023/01/21 09:05:09;;;;;;;34.72;23.00;;;1.60;99.90;;;;;;5055097;28;20052;-67
2023/01/21 09:07:35;;;;;;;32.25;21.35;;;1.90;99.90;;;;;;5073216;28;20492;-67
2023/01/21 09:10:03;;;;;;;37.63;22.13;;;1.80;99.90;;;;;;5055167;28;20526;-68
2023/01/21 09:12:28;;;;;;;35.55;21.65;;;1.80;99.90;;;;;;5055142;28;20060;-67
2023/01/21 09:14:54;;;;;;;36.47;22.80;;;2.00;99.90;;;;;;5073019;28;20480;-67
2023/01/21 09:17:21;;;;;;;38.42;21.73;;;1.70;99.90;;;;;;5073577;28;20561;-68
2023/01/21 09:19:47;;;;;;;35.90;21.92;;;1.80;99.90;;;;;;5038916;28;20059;-67
2023/01/21 09:22:14;;;;;;;43.40;22.63;;;1.70;99.90;;;;;;5073578;28;20380;-67
2023/01/21 09:24:39;;;;;;;38.20;21.65;;;1.90;99.90;;;;;;5073643;28;20036;-67
2023/01/21 09:27:06;;;;;;;34.95;22.25;;;1.70;99.90;;;;;;5054546;28;20423;-67
2023/01/21 09:29:33;;;;;;;33.08;21.92;;;1.80;99.90;;;;;;5072885;28;20090;-67
2023/01/21 09:31:59;;;;;;;39.88;24.13;;;1.70;99.90;;;;;;5072572;28;20123;-67
2023/01/21 09:34:25;;;;;;;32.60;21.00;;;1.60;99.90;;;;;;5073137;28;20079;-67
2023/01/21 09:36:51;;;;;;;31.35;18.88;;;1.70;99.90;;;;;;5072838;28;20072;-67
2023/01/21 09:39:16;;;;;;;34.47;21.00;;;1.80;99.90;;;;;;5038268;28;20036;-67
2023/01/21 09:41:50;;;;;;;33.53;22.50;;;1.90;99.90;;;;;;5072761;28;20088;-67
2023/01/21 09:44:16;;;;;;;34.60;20.63;;;1.80;99.90;;;;;;5054190;28;20080;-70
2023/01/21 09:46:50;;;;;;;30.58;18.13;;;1.90;99.90;;;;;;5073119;28;20082;-67
2023/01/21 09:49:26;;;;;;;29.20;21.83;;;2.90;99.90;;;;;;5055523;28;20059;-69
2023/01/21 09:52:12;;;;;;;30.40;20.75;;;2.40;99.90;;;;;;5056132;28;20052;-68
2023/01/21 09:54:38;;;;;;;34.78;22.35;;;2.10;99.90;;;;;;5072477;28;20107;-68
2023/01/21 09:57:38;;;;;;;38.03;21.95;;;2.20;99.90;;;;;;5075152;28;20059;-68
2023/01/21 10:00:22;;;;;;;32.53;21.13;;;2.20;99.90;;;;;;5072406;28;20135;-68
2023/01/21 10:03:01;;;;;;;33.88;21.83;;;2.30;99.90;;;;;;5073587;28;20045;-68
2023/01/21 10:05:42;;;;;;;29.10;19.70;;;2.30;99.90;;;;;;5055426;28;20072;-68
2023/01/21 10:08:33;;;;;;;32.88;20.65;;;2.20;99.90;;;;;;5073218;28;20044;-68
2023/01/21 10:11:05;;;;;;;29.77;19.45;;;2.20;99.90;;;;;;5072677;28;20040;-68
2023/01/21 10:14:05;;;;;;;38.63;21.88;;;2.20;99.90;;;;;;5073258;28;20064;-68
2023/01/21 10:16:46;;;;;;;32.58;21.05;;;2.20;99.90;;;;;;5054858;28;20536;-68
2023/01/21 10:19:16;;;;;;;31.35;19.70;;;2.30;99.90;;;;;;5072415;28;20052;-68
2023/01/21 10:21:49;;;;;;;32.05;19.67;;;2.50;99.90;;;;;;5054970;28;20044;-68
2023/01/21 10:24:22;;;;;;;35.20;21.33;;;2.30;99.90;;;;;;5072511;28;20105;-67
2023/01/21 10:26:51;;;;;;;27.83;20.63;;;2.40;99.90;;;;;;5073382;28;20045;-67
2023/01/21 10:29:20;;;;;;;36.13;21.40;;;2.40;99.90;;;;;;5075781;28;20037;-67
2023/01/21 10:32:08;;;;;;;34.95;21.33;;;2.40;99.90;;;;;;5077025;28;20346;-67
2023/01/21 10:34:49;;;;;;;32.67;21.88;;;2.40;99.90;;;;;;5077550;28;20040;-67
2023/01/21 10:37:30;;;;;;;40.75;22.58;;;2.40;99.90;;;;;;5077346;28;20047;-67
2023/01/21 10:40:41;;;;;;;37.75;21.88;;;2.40;99.90;;;;;;5076394;28;20044;-67
2023/01/21 10:43:13;;;;;;;35.38;21.60;;;2.40;99.90;;;;;;5057631;28;20044;-67
2023/01/21 10:45:47;;;;;;;33.90;22.02;;;2.40;99.90;;;;;;5076374;28;20041;-68
2023/01/21 10:48:36;;;;;;;35.25;24.50;;;2.50;99.90;;;;;;5076844;28;20076;-66
2023/01/21 10:51:17;;;;;;;30.88;22.10;;;2.50;99.90;;;;;;5076991;28;20148;-67
2023/01/21 10:53:52;;;;;;;31.80;22.48;;;2.60;99.90;;;;;;5075586;28;20037;-68
2023/01/21 10:56:36;;;;;;;33.22;22.20;;;2.60;99.90;;;;;;5076301;28;20041;-68
2023/01/21 10:59:05;;;;;;;35.40;21.25;;;2.70;99.90;;;;;;5057762;28;20048;-68
2023/01/21 11:01:45;;;;;;;32.67;21.75;;;2.80;99.90;;;;;;5075645;28;20458;-67
2023/01/21 11:04:13;;;;;;;35.00;21.05;;;3.50;99.90;;;;;;5076159;28;20050;-67
2023/01/21 11:06:44;;;;;;;36.28;21.90;;;2.90;99.90;;;;;;5075624;28;20474;-67
2023/01/21 11:09:13;;;;;;;30.88;19.90;;;3.00;99.90;;;;;;5075824;28;20084;-67
2023/01/21 11:11:40;;;;;;;31.73;17.92;;;3.00;99.90;;;;;;5075759;28;20098;-67
2023/01/21 11:14:06;;;;;;;32.75;18.80;;;3.10;99.90;;;;;;5075562;28;20504;-67
2023/01/21 11:16:42;;;;;;;26.80;18.45;;;3.20;99.90;;;;;;5076604;28;20052;-66
2023/01/21 11:19:12;;;;;;;30.90;19.55;;;3.30;99.90;;;;;;5057966;28;20419;-67
2023/01/21 11:21:40;;;;;;;30.30;16.60;;;3.30;99.90;;;;;;5074837;28;20484;-67
2023/01/21 11:24:23;;;;;;;26.45;16.55;;;3.30;99.90;;;;;;5075130;28;20477;-67
2023/01/21 11:26:55;;;;;;;29.07;17.70;;;3.50;99.90;;;;;;5076333;28;20361;-67
2023/01/21 11:29:22;;;;;;;24.70;14.95;;;3.40;99.90;;;;;;5057591;28;20266;-67
2023/01/21 11:31:58;;;;;;;29.67;17.63;;;3.50;99.90;;;;;;5057626;28;20127;-67
2023/01/21 11:34:24;;;;;;;24.77;15.88;;;3.60;99.90;;;;;;5040838;28;20123;-67
2023/01/21 11:37:01;;;;;;;22.20;15.38;;;3.60;99.90;;;;;;5075743;28;20123;-67
2023/01/21 11:39:33;;;;;;;24.30;15.48;;;3.60;99.90;;;;;;5058041;28;20423;-67
2023/01/21 11:42:15;;;;;;;22.50;12.73;;;3.60;99.90;;;;;;5075539;28;20458;-67
2023/01/21 11:45:00;;;;;;;26.00;14.18;;;3.70;99.90;;;;;;5058547;28;20044;-67
2023/01/21 11:47:46;;;;;;;16.48;12.85;;;3.80;99.90;;;;;;5074703;28;20041;-67
2023/01/21 11:50:13;;;;;;;19.08;11.55;;;3.80;99.90;;;;;;5075180;28;20052;-67
2023/01/21 11:52:39;;;;;;;17.27;12.25;;;3.80;99.90;;;;;;5074804;28;20047;-67
2023/01/21 11:55:17;;;;;;;16.63;11.38;;;3.90;99.90;;;;;;5075060;28;20041;-67
2023/01/21 11:57:49;;;;;;;18.25;11.82;;;3.90;99.90;;;;;;5075217;28;20040;-69
2023/01/21 12:00:19;;;;;;;14.02;10.02;;;3.90;99.90;;;;;;5073915;28;20048;-67
2023/01/21 12:02:51;;;;;;;13.70;10.45;;;4.00;99.90;;;;;;5074785;28;20322;-67
2023/01/21 12:05:32;;;;;;;16.15;9.65;;;4.00;99.90;;;;;;5056684;28;20051;-67
2023/01/21 12:07:58;;;;;;;16.50;10.07;;;4.00;99.90;;;;;;5074923;28;20036;-67
2023/01/21 12:10:31;;;;;;;18.90;11.55;;;4.00;99.90;;;;;;5073901;28;20115;-67
2023/01/21 12:13:06;;;;;;;14.55;9.68;;;4.00;99.90;;;;;;5074158;28;20067;-67
2023/01/21 12:16:02;;;;;;;16.73;9.70;;;4.00;99.90;;;;;;5056169;28;20522;-67
2023/01/21 12:18:49;;;;;;;13.27;9.65;;;4.00;99.90;;;;;;5074333;28;20090;-67
2023/01/21 12:21:42;;;;;;;16.38;11.05;;;4.10;99.90;;;;;;5074274;28;20455;-67
2023/01/21 12:24:17;;;;;;;18.55;10.18;;;4.00;99.90;;;;;;5055708;28;20354;-67
2023/01/21 12:26:46;;;;;;;16.33;10.48;;;4.00;99.90;;;;;;5074501;28;20044;-67
2023/01/21 12:29:22;;;;;;;13.35;9.15;;;3.90;99.90;;;;;;5073999;28;20047;-68
2023/01/21 12:32:14;;;;;;;15.27;10.52;;;3.90;99.90;;;;;;5073775;28;20479;-67
2023/01/21 12:34:52;;;;;;;15.52;9.85;;;4.10;99.90;;;;;;5073407;28;20121;-67
2023/01/21 12:37:30;;;;;;;15.00;10.70;;;3.90;99.90;;;;;;5074231;28;20177;-67
2023/01/21 12:39:58;;;;;;;14.60;9.20;;;3.80;99.90;;;;;;5074228;28;20366;-67
2023/01/21 12:42:36;;;;;;;10.63;7.13;;;3.90;99.90;;;;;;5073348;28;20112;-69
2023/01/21 12:45:22;;;;;;;12.15;8.77;;;3.90;99.90;;;;;;5073693;28;20084;-67
2023/01/21 12:48:12;;;;;;;12.15;9.48;;;4.00;99.90;;;;;;5072613;28;20482;-67
2023/01/21 12:50:42;;;;;;;8.98;5.82;;;4.00;99.90;;;;;;5054928;28;20080;-67
2023/01/21 12:53:30;;;;;;;6.32;5.15;;;4.10;99.90;;;;;;5073523;28;20048;-67
2023/01/21 12:56:25;;;;;;;7.30;6.50;;;4.10;99.90;;;;;;5073915;28;20170;-67
2023/01/21 12:58:58;;;;;;;11.60;6.25;;;4.10;99.90;;;;;;5074380;28;20078;-67
2023/01/21 13:01:55;;;;;;;11.65;7.57;;;4.10;99.90;;;;;;5039218;28;20128;-67